Wednesday, December 19, 2018, 12:38 AM EST
Back to Local

KGON, Groton/new London Airport

Location: Groton, CT, United States Lat: 41.333
Local Time: 12:38 AM EST ( 5:38 GMT) Lon: -72.05
Time Zone: US/Eastern Elev: 9 ft

Show me the last for .
Show Decoded

2018-12-18 23:56 METAR KGON 190456Z AUTO 31010KT 10SM CLR M04/M12 A3009 RMK AO2 SLP188 T10441117
                 400441050 =
2018-12-18 22:56 METAR KGON 190356Z AUTO 30009G17KT 10SM CLR M04/M12 A3009 RMK AO2 SLP188
                 T10441117 =
2018-12-18 21:56 METAR KGON 190256Z 32011G18KT 10SM CLR M04/M12 A3008 RMK AO2 SLP185 T10391117
                 53001 =
2018-12-18 20:56 METAR KGON 190156Z 31017G23KT 10SM CLR M03/M12 A3007 RMK AO2 SLP183 T10331117 =
2018-12-18 19:56 METAR KGON 190056Z 31012G17KT 10SM CLR M03/M12 A3007 RMK AO2 SLP184 T10281117 =
2018-12-18 18:56 METAR KGON 182356Z 31013KT 10SM CLR M02/M12 A3008 RMK AO2 SLP184 T10221117 10006
                 21022 51026 =
2018-12-18 17:56 METAR KGON 182256Z 30015KT 10SM CLR M02/M12 A3005 RMK AO2 SLP176 T10171117 =
2018-12-18 16:56 METAR KGON 182156Z 31011G17KT 10SM CLR M01/M12 A3004 RMK AO2 SLP171 T10111122 =
2018-12-18 15:56 METAR KGON 182056Z 32011G17KT 10SM CLR 00/M12 A3000 RMK AO2 SLP158 T00001122
                 53027 =
2018-12-18 14:56 METAR KGON 181956Z 30015G22KT 10SM CLR 00/M12 A2997 RMK AO2 SLP147 T00001122 =
2018-12-18 13:56 METAR KGON 181856Z 30017G23KT 10SM CLR 01/M13 A2995 RMK AO2 PK WND 30028/1827
                 SLP141 T00061128 =
2018-12-18 12:56 METAR KGON 181756Z 32020G25KT 10SM CLR 01/M13 A2992 RMK AO2 PK WND 32030/1701
                 SLP131 T00061128 10006 21039 53005 =
2018-12-18 11:56 METAR KGON 181656Z 32014G29KT 10SM CLR 00/M13 A2990 RMK AO2 PK WND 31029/1647
                 SLP125 T00001128 =
2018-12-18 10:56 METAR KGON 181556Z 33016G28KT 10SM CLR M01/M13 A2990 RMK AO2 PK WND 34031/1459
                 SLP123 T10111128 =
2018-12-18 09:56 METAR KGON 181456Z 33023G32KT 10SM CLR M02/M13 A2991 RMK AO2 PK WND 32033/1446
                 SLP127 T10221133 51027 =
2018-12-18 08:56 METAR KGON 181356Z 33021G28KT 10SM CLR M03/M13 A2989 RMK AO2 PK WND 33030/1343
                 SLP122 T10331133 =
2018-12-18 07:56 METAR KGON 181256Z 32020G26KT 10SM CLR M04/M13 A2987 RMK AO2 PK WND 31029/1217
                 SLP114 T10391128 =
2018-12-18 06:56 METAR KGON 181156Z 32016G29KT 10SM CLR M04/M13 A2983 RMK AO2 PK WND 31041/1103
                 SLP100 T10391128 10028 21039 53034 =
2018-12-18 05:56 METAR KGON 181056Z AUTO 32028G37KT 10SM CLR M03/M13 A2979 RMK AO2 PK WND
                 32038/1025 SLP087 T10331133 =
2018-12-18 04:56 METAR KGON 180956Z AUTO 32026G35KT 10SM CLR M03/M12 A2976 RMK AO2 PK WND
                 33035/0947 SLP078 T10281117 =
2018-12-18 03:56 METAR KGON 180856Z AUTO 33024G32KT 10SM CLR M01/M08 A2973 RMK AO2 PK WND
                 31033/0806 SLP066 T10111083 51025 =
2018-12-18 02:56 METAR KGON 180756Z AUTO 30019G33KT 10SM BKN050 OVC060 01/M09 A2970 RMK AO2 PK
                 WND 29033/0750 SLP058 T00111089 =
2018-12-18 01:56 METAR KGON 180656Z AUTO 31021G34KT 10SM FEW065 02/M08 A2969 RMK AO2 PK WND
                 33034/0650 SLP053 T00171083 =
2018-12-18 00:56 METAR KGON 180556Z AUTO 31014G27KT 10SM BKN042 BKN049 OVC060 03/M06 A2965 RMK
                 AO2 PK WND 31029/0536 RAB08E22SNB22E23 SLP041 P0000 60000 T00281056 10050 20028
                 55003 =

Support USWX by starting your Amazon purchase here.